^^
Grace C. Lehan Memorial Weather Station Historical Data
Daily Summary for July 11, 2022 Units:  Both    English   Metric
Daily Weekly Monthly Yearly
  High: Low: Average:
Temperature: 76.1 °F /  24.5 °C 64.9 °F /  18.3 °C 70.4 °F /  21.3 °C
Dew Point: 67 °F /  19.4 °C 59.1 °F /  15.1 °C 63.1 °F /  17.3 °C
Humidity: 93.2% 62.2% 78%
Wind Speed: 0.5mph /  0.8km/h - 0mph /  0km/h
Wind Gust: 4mph /  6.4km/h - -
Wind- - WNW
Pressure: 30.15 in /  1020.9 hPa 29.95 in /  1014.1 hPa -
Precipitation: 0.05 in /  1.27 mm    
 
 
Tabular Data for July 11, 2022
Time Temperature Dew Point Pressure Wind Wind Speed Wind Gust Humidity Rainfall Rate (Hourly) solar
00:09 69.4 °F /  20.8 °C 59.6 °F /  15.3 °C 30.15in /  1020.9hPa Calm     71% 0.00in /  0mm 0 W/m2
00:14 69.3 °F /  20.7 °C 59.5 °F /  15.3 °C 30.15in /  1020.9hPa Calm     71% 0.00in /  0mm 0 W/m2
00:19 69.3 °F /  20.7 °C 59.3 °F /  15.2 °C 30.15in /  1020.9hPa Calm     70.6% 0.00in /  0mm 0 W/m2
00:24 69.2 °F /  20.7 °C 59.3 °F /  15.2 °C 30.15in /  1020.9hPa Calm     70.6% 0.00in /  0mm 0 W/m2
00:29 69.2 °F /  20.7 °C 59.4 °F /  15.2 °C 30.15in /  1020.9hPa Calm     71% 0.00in /  0mm 0 W/m2
00:34 69.2 °F /  20.7 °C 59.4 °F /  15.2 °C 30.15in /  1020.9hPa Calm     71% 0.00in /  0mm 0 W/m2
00:39 69.1 °F /  20.6 °C 59.3 °F /  15.2 °C 30.15in /  1020.9hPa Calm     71% 0.00in /  0mm 0 W/m2
00:44 69.1 °F /  20.6 °C 59.3 °F /  15.2 °C 30.15in /  1020.9hPa Calm     71% 0.00in /  0mm 0 W/m2
00:49 69 °F /  20.6 °C 59.2 °F /  15.1 °C 30.15in /  1020.9hPa Calm     71% 0.00in /  0mm 0 W/m2
00:54 69 °F /  20.6 °C 59.2 °F /  15.1 °C 30.15in /  1020.9hPa Calm     71% 0.00in /  0mm 0 W/m2
00:59 68.9 °F /  20.5 °C 59.1 °F /  15.1 °C 30.15in /  1020.9hPa Calm     71% 0.00in /  0mm 0 W/m2
01:04 68.9 °F /  20.5 °C 59.2 °F /  15.1 °C 30.15in /  1020.9hPa Calm     71.3% 0.00in /  0mm 0 W/m2
01:09 68.9 °F /  20.5 °C 59.4 °F /  15.2 °C 30.15in /  1020.9hPa Calm     71.8% 0.00in /  0mm 0 W/m2
01:14 68.8 °F /  20.4 °C 59.4 °F /  15.2 °C 30.15in /  1020.9hPa Calm     72% 0.00in /  0mm 0 W/m2
01:19 68.8 °F /  20.4 °C 59.4 °F /  15.2 °C 30.15in /  1020.9hPa Calm     72% 0.00in /  0mm 0 W/m2
01:24 68.8 °F /  20.4 °C 59.4 °F /  15.2 °C 30.14in /  1020.5hPa Calm     72% 0.00in /  0mm 0 W/m2
01:29 68.8 °F /  20.4 °C 59.8 °F /  15.4 °C 30.15in /  1020.9hPa Calm     73% 0.00in /  0mm 0 W/m2
01:34 68.7 °F /  20.4 °C 59.8 °F /  15.4 °C 30.15in /  1020.9hPa Calm     73.4% 0.00in /  0mm 0 W/m2
01:39 68.6 °F /  20.3 °C 60 °F /  15.6 °C 30.14in /  1020.5hPa Calm     74% 0.00in /  0mm 0 W/m2
01:44 68.5 °F /  20.3 °C 59.9 °F /  15.5 °C 30.14in /  1020.5hPa Calm     74% 0.00in /  0mm 0 W/m2
01:49 68.4 °F /  20.2 °C 59.8 °F /  15.4 °C 30.15in /  1020.9hPa Calm     74% 0.00in /  0mm 0 W/m2
01:54 68.2 °F /  20.1 °C 59.7 °F /  15.4 °C 30.15in /  1020.9hPa Calm     74.3% 0.00in /  0mm 0 W/m2
01:59 68.1 °F /  20.1 °C 59.9 °F /  15.5 °C 30.14in /  1020.5hPa Calm     75% 0.00in /  0mm 0 W/m2
02:04 68 °F /  20 °C 59.9 °F /  15.5 °C 30.14in /  1020.5hPa Calm     75.4% 0.00in /  0mm 0 W/m2
02:09 67.9 °F /  19.9 °C 60 °F /  15.6 °C 30.15in /  1020.9hPa Calm     76% 0.00in /  0mm 0 W/m2
02:14 67.8 °F /  19.9 °C 59.9 °F /  15.5 °C 30.15in /  1020.9hPa Calm     76% 0.00in /  0mm 0 W/m2
02:19 67.7 °F /  19.8 °C 59.8 °F /  15.4 °C 30.14in /  1020.5hPa Calm     76% 0.00in /  0mm 0 W/m2
02:24 67.6 °F /  19.8 °C 59.8 °F /  15.4 °C 30.14in /  1020.5hPa Calm     76% 0.00in /  0mm 0 W/m2
02:29 67.5 °F /  19.7 °C 59.9 °F /  15.5 °C 30.14in /  1020.5hPa Calm     76.6% 0.00in /  0mm 0 W/m2
02:34 67.4 °F /  19.7 °C 59.9 °F /  15.5 °C 30.14in /  1020.5hPa Calm     77% 0.00in /  0mm 0 W/m2
02:39 67.2 °F /  19.6 °C 59.8 °F /  15.4 °C 30.14in /  1020.5hPa Calm     77% 0.00in /  0mm 0 W/m2
02:44 67.1 °F /  19.5 °C 59.6 °F /  15.3 °C 30.14in /  1020.5hPa Calm     77% 0.00in /  0mm 0 W/m2
02:49 66.9 °F /  19.4 °C 59.7 °F /  15.4 °C 30.14in /  1020.5hPa Calm     77.5% 0.00in /  0mm 0 W/m2
02:54 66.8 °F /  19.3 °C 59.7 °F /  15.4 °C 30.14in /  1020.5hPa Calm     78% 0.00in /  0mm 0 W/m2
02:59 66.7 °F /  19.3 °C 59.8 °F /  15.4 °C 30.14in /  1020.5hPa Calm     78.5% 0.00in /  0mm 0 W/m2
03:04 66.6 °F /  19.2 °C 59.8 °F /  15.4 °C 30.14in /  1020.5hPa Calm     79% 0.00in /  0mm 0 W/m2
03:09 66.4 °F /  19.1 °C 59.8 °F /  15.4 °C 30.14in /  1020.5hPa Calm     79.3% 0.00in /  0mm 0 W/m2
03:14 66.3 °F /  19.1 °C 60 °F /  15.6 °C 30.14in /  1020.5hPa Calm     80% 0.00in /  0mm 0 W/m2
03:19 66.2 °F /  19 °C 60 °F /  15.6 °C 30.14in /  1020.5hPa Calm     80.3% 0.00in /  0mm 0 W/m2
03:24 66.1 °F /  18.9 °C 60.1 °F /  15.6 °C 30.14in /  1020.5hPa Calm     80.9% 0.00in /  0mm 0 W/m2
03:29 66 °F /  18.9 °C 60 °F /  15.6 °C 30.14in /  1020.5hPa Calm     81% 0.00in /  0mm 0 W/m2
03:34 66 °F /  18.9 °C 60 °F /  15.6 °C 30.13in /  1020.2hPa Calm     81% 0.00in /  0mm 0 W/m2
03:39 66 °F /  18.9 °C 60 °F /  15.6 °C 30.13in /  1020.2hPa Calm     81% 0.00in /  0mm 0 W/m2
03:44 66 °F /  18.9 °C 60 °F /  15.6 °C 30.13in /  1020.2hPa Calm     81% 0.00in /  0mm 0 W/m2
03:49 66 °F /  18.9 °C 60 °F /  15.6 °C 30.13in /  1020.2hPa Calm     81% 0.00in /  0mm 0 W/m2
03:54 66 °F /  18.9 °C 60 °F /  15.6 °C 30.13in /  1020.2hPa Calm     81% 0.00in /  0mm 0 W/m2
03:59 66 °F /  18.9 °C 60 °F /  15.6 °C 30.13in /  1020.2hPa Calm     81% 0.00in /  0mm 0 W/m2
04:00 66 °F /  18.9 °C 60 °F /  15.6 °C 30.13in /  1020.2hPa Calm     81% 0.00in /  0mm 0 W/m2
04:09 66 °F /  18.9 °C 60 °F /  15.6 °C 30.12in /  1019.9hPa Calm     81% 0.00in /  0mm 0 W/m2
04:14 66 °F /  18.9 °C 60 °F /  15.6 °C 30.13in /  1020.2hPa Calm     81% 0.00in /  0mm 0 W/m2
04:19 66 °F /  18.9 °C 60 °F /  15.6 °C 30.12in /  1019.9hPa Calm     81% 0.00in /  0mm 0 W/m2
04:24 66 °F /  18.9 °C 60 °F /  15.6 °C 30.12in /  1019.9hPa Calm     81% 0.00in /  0mm 0 W/m2
04:29 66 °F /  18.9 °C 60 °F /  15.6 °C 30.12in /  1019.9hPa Calm     81% 0.00in /  0mm 0 W/m2
04:34 66 °F /  18.9 °C 60.1 °F /  15.6 °C 30.13in /  1020.2hPa Calm     81% 0.00in /  0mm 0 W/m2
04:39 66 °F /  18.9 °C 60 °F /  15.6 °C 30.12in /  1019.9hPa Calm     81% 0.00in /  0mm 0 W/m2
04:44 66 °F /  18.9 °C 60.1 °F /  15.6 °C 30.12in /  1019.9hPa Calm     81.3% 0.00in /  0mm 0 W/m2
04:49 66 °F /  18.9 °C 60.1 °F /  15.6 °C 30.13in /  1020.2hPa Calm     81.2% 0.00in /  0mm 0 W/m2
04:54 66 °F /  18.9 °C 60 °F /  15.6 °C 30.12in /  1019.9hPa Calm     81% 0.00in /  0mm 0 W/m2
04:59 65.9 °F /  18.8 °C 59.9 °F /  15.5 °C 30.13in /  1020.2hPa Calm     81% 0.00in /  0mm 0 W/m2
05:04 65.9 °F /  18.8 °C 60 °F /  15.6 °C 30.12in /  1019.9hPa Calm     81.2% 0.00in /  0mm 0 W/m2
05:09 65.9 °F /  18.8 °C 60 °F /  15.6 °C 30.12in /  1019.9hPa Calm     81.2% 0.00in /  0mm 0 W/m2
05:14 65.8 °F /  18.8 °C 60.1 °F /  15.6 °C 30.12in /  1019.9hPa Calm     81.8% 0.00in /  0mm 0 W/m2
05:19 65.9 °F /  18.8 °C 60.4 °F /  15.8 °C 30.12in /  1019.9hPa Calm     82.6% 0.00in /  0mm 0 W/m2
05:24 65.8 °F /  18.8 °C 60.5 °F /  15.8 °C 30.12in /  1019.9hPa Calm     83% 0.00in /  0mm 0 W/m2
05:29 65.8 °F /  18.8 °C 60.5 °F /  15.8 °C 30.12in /  1019.9hPa Calm     83% 0.00in /  0mm 0 W/m2
05:34 65.8 °F /  18.8 °C 60.8 °F /  16 °C 30.12in /  1019.9hPa Calm     83.9% 0.00in /  0mm 0 W/m2
05:39 65.7 °F /  18.7 °C 60.7 °F /  15.9 °C 30.12in /  1019.9hPa Calm     84% 0.00in /  0mm 0 W/m2
05:44 65.6 °F /  18.7 °C 60.6 °F /  15.9 °C 30.12in /  1019.9hPa Calm     84% 0.00in /  0mm 0 W/m2
05:49 65.5 °F /  18.6 °C 60.5 °F /  15.8 °C 30.12in /  1019.9hPa Calm     84% 0.00in /  0mm 0 W/m2
05:54 65.4 °F /  18.6 °C 60.5 °F /  15.8 °C 30.12in /  1019.9hPa Calm     84% 0.00in /  0mm 0 W/m2
05:59 65.4 °F /  18.6 °C 60.4 °F /  15.8 °C 30.12in /  1019.9hPa Calm     84% 0.00in /  0mm 0 W/m2
06:04 65.3 °F /  18.5 °C 60.6 °F /  15.9 °C 30.12in /  1019.9hPa Calm     84.6% 0.00in /  0mm 0 W/m2
06:09 65.3 °F /  18.5 °C 60.6 °F /  15.9 °C 30.13in /  1020.2hPa Calm     85% 0.00in /  0mm 0 W/m2
06:14 65.2 °F /  18.4 °C 60.6 °F /  15.9 °C 30.12in /  1019.9hPa Calm     85% 0.00in /  0mm 0 W/m2
06:19 65.2 °F /  18.4 °C 60.6 °F /  15.9 °C 30.12in /  1019.9hPa Calm     85% 0.00in /  0mm 0 W/m2
06:24 65.1 °F /  18.4 °C 60.5 °F /  15.8 °C 30.12in /  1019.9hPa Calm     85% 0.00in /  0mm 0 W/m2
06:29 65.1 °F /  18.4 °C 60.5 °F /  15.8 °C 30.12in /  1019.9hPa Calm     85.1% 0.00in /  0mm 0 W/m2
06:34 65 °F /  18.3 °C 60.7 °F /  15.9 °C 30.12in /  1019.9hPa Calm     86% 0.00in /  0mm 5 W/m2
06:39 65 °F /  18.3 °C 60.7 °F /  15.9 °C 30.12in /  1019.9hPa Calm     86% 0.00in /  0mm 9 W/m2
06:44 64.9 °F /  18.3 °C 60.6 °F /  15.9 °C 30.12in /  1019.9hPa Calm     86% 0.00in /  0mm 11 W/m2
06:49 64.9 °F /  18.3 °C 60.6 °F /  15.9 °C 30.12in /  1019.9hPa Calm     86% 0.00in /  0mm 11 W/m2
06:54 64.9 °F /  18.3 °C 60.6 °F /  15.9 °C 30.12in /  1019.9hPa Calm     86% 0.00in /  0mm 16 W/m2
06:59 64.9 °F /  18.3 °C 60.6 °F /  15.9 °C 30.12in /  1019.9hPa Calm     86% 0.00in /  0mm 21 W/m2
07:04 64.9 °F /  18.3 °C 60.7 °F /  15.9 °C 30.13in /  1020.2hPa Calm     86.2% 0.00in /  0mm 25 W/m2
07:09 65 °F /  18.3 °C 61 °F /  16.1 °C 30.13in /  1020.2hPa Calm     87% 0.00in /  0mm 32 W/m2
07:14 65.1 °F /  18.4 °C 61.3 °F /  16.3 °C 30.13in /  1020.2hPa Calm     87.2% 0.00in /  0mm 35 W/m2
07:19 65.3 °F /  18.5 °C 61.6 °F /  16.4 °C 30.13in /  1020.2hPa Calm     87.8% 0.00in /  0mm 42 W/m2
07:24 65.3 °F /  18.5 °C 61.4 °F /  16.3 °C 30.12in /  1019.9hPa Calm     87% 0.00in /  0mm 49 W/m2
07:29 65.4 °F /  18.6 °C 61.5 °F /  16.4 °C 30.13in /  1020.2hPa Calm     87% 0.00in /  0mm 56 W/m2
07:34 65.5 °F /  18.6 °C 61.7 °F /  16.5 °C 30.13in /  1020.2hPa Calm     87.5% 0.00in /  0mm 58 W/m2
07:39 65.7 °F /  18.7 °C 62.1 °F /  16.7 °C 30.13in /  1020.2hPa Calm     88% 0.00in /  0mm 53 W/m2
07:44 65.9 °F /  18.8 °C 62.2 °F /  16.8 °C 30.13in /  1020.2hPa Calm     88% 0.00in /  0mm 58 W/m2
07:49 65.9 °F /  18.8 °C 62.3 °F /  16.8 °C 30.13in /  1020.2hPa Calm     88% 0.00in /  0mm 69 W/m2
07:54 66 °F /  18.9 °C 62.4 °F /  16.9 °C 30.13in /  1020.2hPa Calm     88% 0.00in /  0mm 88 W/m2
07:59 66.2 °F /  19 °C 62.6 °F /  17 °C 30.12in /  1019.9hPa Calm     88% 0.00in /  0mm 97 W/m2
08:09 66.5 °F /  19.2 °C 62.2 °F /  16.8 °C 30.12in /  1019.9hPa Calm     86% 0.00in /  0mm 107 W/m2
08:14 66.7 °F /  19.3 °C 62.3 °F /  16.8 °C 30.12in /  1019.9hPa Calm     85.7% 0.00in /  0mm 116 W/m2
08:19 67 °F /  19.4 °C 62.3 °F /  16.8 °C 30.13in /  1020.2hPa Calm     85% 0.00in /  0mm 116 W/m2
08:24 67.2 °F /  19.6 °C 62.6 °F /  17 °C 30.13in /  1020.2hPa Calm     85% 0.00in /  0mm 109 W/m2
08:29 67.5 °F /  19.7 °C 62.6 °F /  17 °C 30.13in /  1020.2hPa Calm     84.3% 0.00in /  0mm 95 W/m2
08:34 67.7 °F /  19.8 °C 62.4 °F /  16.9 °C 30.12in /  1019.9hPa Calm     83.1% 0.00in /  0mm 123 W/m2
08:39 67.9 °F /  19.9 °C 62.2 °F /  16.8 °C 30.12in /  1019.9hPa Calm   1mph /  1.6km/h 82% 0.00in /  0mm 179 W/m2
08:44 68.3 °F /  20.2 °C 62.8 °F /  17.1 °C 30.12in /  1019.9hPa WNW 0.1mph /  0.2km/h 2mph /  3.2km/h 82.7% 0.00in /  0mm 237 W/m2
08:49 68.8 °F /  20.4 °C 62.9 °F /  17.2 °C 30.12in /  1019.9hPa Calm   2mph /  3.2km/h 81.7% 0.00in /  0mm 279 W/m2
08:54 69.2 °F /  20.7 °C 62.6 °F /  17 °C 30.12in /  1019.9hPa Calm   2mph /  3.2km/h 79.4% 0.00in /  0mm 195 W/m2
08:59 69.7 °F /  20.9 °C 62.8 °F /  17.1 °C 30.12in /  1019.9hPa Calm   2mph /  3.2km/h 79% 0.00in /  0mm 171 W/m2
09:04 70.1 °F /  21.2 °C 62.6 °F /  17 °C 30.12in /  1019.9hPa Calm   2mph /  3.2km/h 77.2% 0.00in /  0mm 174 W/m2
09:09 70.5 °F /  21.4 °C 63.3 °F /  17.4 °C 30.12in /  1019.9hPa Calm     78% 0.00in /  0mm 204 W/m2
09:14 71 °F /  21.7 °C 63.9 °F /  17.7 °C 30.12in /  1019.9hPa Calm     78.2% 0.00in /  0mm 320 W/m2
09:19 71.4 °F /  21.9 °C 63.6 °F /  17.6 °C 30.12in /  1019.9hPa Calm     76.6% 0.00in /  0mm 353 W/m2
09:24 71.7 °F /  22.1 °C 62.8 °F /  17.1 °C 30.12in /  1019.9hPa Calm     73.5% 0.00in /  0mm 302 W/m2
09:29 72.3 °F /  22.4 °C 63.5 °F /  17.5 °C 30.12in /  1019.9hPa Calm     74% 0.00in /  0mm 274 W/m2
09:34 72.7 °F /  22.6 °C 63.5 °F /  17.5 °C 30.12in /  1019.9hPa Calm     73% 0.00in /  0mm 225 W/m2
09:39 73 °F /  22.8 °C 64 °F /  17.8 °C 30.12in /  1019.9hPa Calm     73.4% 0.00in /  0mm 318 W/m2
09:44 73.4 °F /  23 °C 64.4 °F /  18 °C 30.11in /  1019.5hPa Calm     73.5% 0.00in /  0mm 422 W/m2
09:49 73.8 °F /  23.2 °C 64.4 °F /  18 °C 30.11in /  1019.5hPa Calm     72.6% 0.00in /  0mm 253 W/m2
09:54 74.1 °F /  23.4 °C 63.9 °F /  17.7 °C 30.11in /  1019.5hPa Calm     70.5% 0.00in /  0mm 225 W/m2
09:59 74.2 °F /  23.4 °C 64.1 °F /  17.8 °C 30.11in /  1019.5hPa Calm     70.6% 0.00in /  0mm 232 W/m2
10:04 74.2 °F /  23.4 °C 63.4 °F /  17.4 °C 30.11in /  1019.5hPa Calm     69% 0.00in /  0mm 216 W/m2
10:09 74.3 °F /  23.5 °C 64 °F /  17.8 °C 30.11in /  1019.5hPa Calm     70.2% 0.00in /  0mm 220 W/m2
10:14 74.4 °F /  23.6 °C 64.7 °F /  18.2 °C 30.11in /  1019.5hPa Calm     71.8% 0.00in /  0mm 243 W/m2
10:19 74.6 °F /  23.7 °C 65 °F /  18.3 °C 30.11in /  1019.5hPa Calm     72% 0.00in /  0mm 262 W/m2
10:24 74.7 °F /  23.7 °C 64.3 °F /  17.9 °C 30.11in /  1019.5hPa Calm     70.1% 0.00in /  0mm 262 W/m2
10:29 74.9 °F /  23.8 °C 64.9 °F /  18.3 °C 30.11in /  1019.5hPa Calm     71.1% 0.00in /  0mm 236 W/m2
10:34 75 °F /  23.9 °C 65.3 °F /  18.5 °C 30.11in /  1019.5hPa Calm     71.7% 0.00in /  0mm 216 W/m2
10:39 75.1 °F /  23.9 °C 65.4 °F /  18.6 °C 30.11in /  1019.5hPa Calm     71.8% 0.00in /  0mm 199 W/m2
10:44 75.2 °F /  24 °C 65 °F /  18.3 °C 30.11in /  1019.5hPa Calm     70.7% 0.00in /  0mm 223 W/m2
10:49 75.2 °F /  24 °C 64.9 °F /  18.3 °C 30.11in /  1019.5hPa Calm     70.4% 0.00in /  0mm 232 W/m2
10:54 75.3 °F /  24.1 °C 64.8 °F /  18.2 °C 30.11in /  1019.5hPa Calm     70% 0.00in /  0mm 230 W/m2
10:59 75.4 °F /  24.1 °C 65.3 °F /  18.5 °C 30.11in /  1019.5hPa Calm     70.9% 0.00in /  0mm 209 W/m2
11:04 75.5 °F /  24.2 °C 65.3 °F /  18.5 °C 30.11in /  1019.5hPa Calm     70.8% 0.00in /  0mm 225 W/m2
11:09 75.6 °F /  24.2 °C 65.5 °F /  18.6 °C 30.11in /  1019.5hPa Calm     71.1% 0.00in /  0mm 248 W/m2
11:14 75.7 °F /  24.3 °C 66.1 °F /  18.9 °C 30.11in /  1019.5hPa Calm     72% 0.00in /  0mm 255 W/m2
11:19 75.8 °F /  24.3 °C 66.2 °F /  19 °C 30.11in /  1019.5hPa Calm     72.2% 0.00in /  0mm 279 W/m2
11:24 75.9 °F /  24.4 °C 65.5 °F /  18.6 °C 30.10in /  1019.2hPa Calm     70.2% 0.00in /  0mm 276 W/m2
11:29 75.9 °F /  24.4 °C 65.2 °F /  18.4 °C 30.10in /  1019.2hPa Calm     69.5% 0.00in /  0mm 214 W/m2
11:34 76 °F /  24.4 °C 65.7 °F /  18.7 °C 30.10in /  1019.2hPa Calm     70.5% 0.00in /  0mm 179 W/m2
11:39 75.9 °F /  24.4 °C 65.3 °F /  18.5 °C 30.10in /  1019.2hPa Calm     69.8% 0.00in /  0mm 183 W/m2
11:44 75.9 °F /  24.4 °C 65.8 °F /  18.8 °C 30.10in /  1019.2hPa Calm     71.1% 0.00in /  0mm 239 W/m2
11:49 75.8 °F /  24.3 °C 65.3 °F /  18.5 °C 30.10in /  1019.2hPa Calm     69.8% 0.00in /  0mm 239 W/m2
11:54 75.8 °F /  24.3 °C 65.8 °F /  18.8 °C 30.10in /  1019.2hPa Calm     71.2% 0.00in /  0mm 229 W/m2
11:59 75.9 °F /  24.4 °C 65.9 °F /  18.8 °C 30.10in /  1019.2hPa Calm   1mph /  1.6km/h 71.2% 0.00in /  0mm 234 W/m2
12:00 76 °F /  24.4 °C 65.9 °F /  18.8 °C 30.10in /  1019.2hPa Calm   1mph /  1.6km/h 71% 0.00in /  0mm 234 W/m2
12:09 76 °F /  24.4 °C 65.7 °F /  18.7 °C 30.10in /  1019.2hPa Calm     70.4% 0.00in /  0mm 220 W/m2
12:14 76 °F /  24.4 °C 65.6 °F /  18.7 °C 30.10in /  1019.2hPa Calm     70.3% 0.00in /  0mm 199 W/m2
12:19 76 °F /  24.4 °C 65.4 °F /  18.6 °C 30.10in /  1019.2hPa Calm     69.8% 0.00in /  0mm 199 W/m2
12:24 76 °F /  24.4 °C 65.9 °F /  18.8 °C 30.10in /  1019.2hPa Calm     71% 0.00in /  0mm 195 W/m2
12:29 76.1 °F /  24.5 °C 65.6 °F /  18.7 °C 30.10in /  1019.2hPa Calm     70.1% 0.00in /  0mm 162 W/m2
12:34 76 °F /  24.4 °C 65.7 °F /  18.7 °C 30.10in /  1019.2hPa Calm     70.3% 0.00in /  0mm 148 W/m2
12:39 76.1 °F /  24.5 °C 65.9 °F /  18.8 °C 30.10in /  1019.2hPa Calm     70.6% 0.00in /  0mm 139 W/m2
12:44 76.1 °F /  24.5 °C 66.1 °F /  18.9 °C 30.09in /  1018.8hPa Calm   1mph /  1.6km/h 71.2% 0.00in /  0mm 146 W/m2
12:49 76.1 °F /  24.5 °C 66.6 °F /  19.2 °C 30.09in /  1018.8hPa Calm   1mph /  1.6km/h 72.4% 0.00in /  0mm 153 W/m2
12:54 76 °F /  24.4 °C 66.1 °F /  18.9 °C 30.09in /  1018.8hPa WNW 0.1mph /  0.2km/h 2mph /  3.2km/h 71.3% 0.00in /  0mm 153 W/m2
12:59 76 °F /  24.4 °C 66 °F /  18.9 °C 30.09in /  1018.8hPa Calm   2mph /  3.2km/h 71.3% 0.00in /  0mm 156 W/m2
13:04 75.8 °F /  24.3 °C 65.8 °F /  18.8 °C 30.09in /  1018.8hPa Calm   2mph /  3.2km/h 70.9% 0.00in /  0mm 155 W/m2
13:09 75.9 °F /  24.4 °C 66.4 °F /  19.1 °C 30.09in /  1018.8hPa Calm     72.5% 0.00in /  0mm 153 W/m2
13:14 75.9 °F /  24.4 °C 66.4 °F /  19.1 °C 30.09in /  1018.8hPa WNW 0.1mph /  0.2km/h 2mph /  3.2km/h 72.5% 0.00in /  0mm 144 W/m2
13:19 75.8 °F /  24.3 °C 65.8 °F /  18.8 °C 30.09in /  1018.8hPa Calm   2mph /  3.2km/h 71.1% 0.00in /  0mm 141 W/m2
13:24 75.7 °F /  24.3 °C 65.8 °F /  18.8 °C 30.09in /  1018.8hPa Calm   2mph /  3.2km/h 71.4% 0.00in /  0mm 148 W/m2
13:29 75.7 °F /  24.3 °C 66.5 °F /  19.2 °C 30.09in /  1018.8hPa Calm   2mph /  3.2km/h 73.1% 0.00in /  0mm 146 W/m2
13:34 75.8 °F /  24.3 °C 67 °F /  19.4 °C 30.08in /  1018.5hPa Calm   2mph /  3.2km/h 74.3% 0.00in /  0mm 125 W/m2
13:39 75.7 °F /  24.3 °C 66.5 °F /  19.2 °C 30.08in /  1018.5hPa Calm     73.2% 0.00in /  0mm 156 W/m2
13:44 75.6 °F /  24.2 °C 66.3 °F /  19.1 °C 30.08in /  1018.5hPa Calm     72.9% 0.00in /  0mm 179 W/m2
13:49 75.7 °F /  24.3 °C 66.8 °F /  19.3 °C 30.08in /  1018.5hPa Calm     73.9% 0.00in /  0mm 193 W/m2
13:54 75.7 °F /  24.3 °C 66.6 °F /  19.2 °C 30.08in /  1018.5hPa Calm     73.3% 0.00in /  0mm 195 W/m2
13:59 75.7 °F /  24.3 °C 66.4 °F /  19.1 °C 30.08in /  1018.5hPa Calm     72.8% 0.00in /  0mm 199 W/m2
14:04 75.8 °F /  24.3 °C 66.1 °F /  18.9 °C 30.08in /  1018.5hPa Calm     72% 0.00in /  0mm 200 W/m2
14:09 75.9 °F /  24.4 °C 66.5 °F /  19.2 °C 30.08in /  1018.5hPa WNW 0.1mph /  0.2km/h 3mph /  4.8km/h 72.7% 0.00in /  0mm 197 W/m2
14:14 76 °F /  24.4 °C 65.5 °F /  18.6 °C 30.08in /  1018.5hPa WNW 0.1mph /  0.2km/h 3mph /  4.8km/h 70% 0.00in /  0mm 190 W/m2
14:19 76 °F /  24.4 °C 64.9 °F /  18.3 °C 30.07in /  1018.2hPa Calm   3mph /  4.8km/h 68.5% 0.00in /  0mm 186 W/m2
14:24 76 °F /  24.4 °C 64.6 °F /  18.1 °C 30.07in /  1018.2hPa Calm   3mph /  4.8km/h 67.9% 0.00in /  0mm 176 W/m2
14:29 76 °F /  24.4 °C 63.8 °F /  17.7 °C 30.07in /  1018.2hPa Calm   3mph /  4.8km/h 66% 0.00in /  0mm 181 W/m2
14:34 75.9 °F /  24.4 °C 63.3 °F /  17.4 °C 30.07in /  1018.2hPa Calm   3mph /  4.8km/h 65% 0.00in /  0mm 174 W/m2
14:39 75.9 °F /  24.4 °C 63.8 °F /  17.7 °C 30.06in /  1017.8hPa Calm     66% 0.00in /  0mm 156 W/m2
14:44 75.9 °F /  24.4 °C 63.3 °F /  17.4 °C 30.06in /  1017.8hPa Calm     65% 0.00in /  0mm 167 W/m2
14:49 75.9 °F /  24.4 °C 63.6 °F /  17.6 °C 30.06in /  1017.8hPa Calm     65.7% 0.00in /  0mm 172 W/m2
14:54 75.8 °F /  24.3 °C 62 °F /  16.7 °C 30.06in /  1017.8hPa Calm     62.2% 0.00in /  0mm 169 W/m2
14:59 75.8 °F /  24.3 °C 62.5 °F /  16.9 °C 30.05in /  1017.5hPa Calm     63.4% 0.00in /  0mm 156 W/m2
15:04 75.8 °F /  24.3 °C 62.8 °F /  17.1 °C 30.05in /  1017.5hPa Calm     64% 0.00in /  0mm 142 W/m2
15:09 75.9 °F /  24.4 °C 63 °F /  17.2 °C 30.05in /  1017.5hPa Calm     64.5% 0.00in /  0mm 139 W/m2
15:14 76 °F /  24.4 °C 64.5 °F /  18.1 °C 30.05in /  1017.5hPa Calm     67.7% 0.00in /  0mm 137 W/m2
15:19 76.1 °F /  24.5 °C 65.6 °F /  18.7 °C 30.05in /  1017.5hPa Calm     70% 0.00in /  0mm 137 W/m2
15:24 76.1 °F /  24.5 °C 65.7 °F /  18.7 °C 30.05in /  1017.5hPa Calm     70.4% 0.00in /  0mm 137 W/m2
15:29 75.9 °F /  24.4 °C 65.7 °F /  18.7 °C 30.05in /  1017.5hPa Calm     70.8% 0.00in /  0mm 134 W/m2
15:34 75.8 °F /  24.3 °C 65.9 °F /  18.8 °C 30.05in /  1017.5hPa Calm     71.5% 0.00in /  0mm 120 W/m2
15:39 75.7 °F /  24.3 °C 66.1 °F /  18.9 °C 30.04in /  1017.2hPa Calm     72.3% 0.00in /  0mm 114 W/m2
15:44 75.6 °F /  24.2 °C 66.1 °F /  18.9 °C 30.04in /  1017.2hPa Calm     72.3% 0.00in /  0mm 111 W/m2
15:49 75.5 °F /  24.2 °C 65.6 °F /  18.7 °C 30.04in /  1017.2hPa Calm     71.5% 0.00in /  0mm 118 W/m2
15:54 75.3 °F /  24.1 °C 64.9 °F /  18.3 °C 30.04in /  1017.2hPa Calm     70.1% 0.00in /  0mm 123 W/m2
15:59 75.2 °F /  24 °C 64.9 °F /  18.3 °C 30.04in /  1017.2hPa Calm     70.5% 0.00in /  0mm 123 W/m2
16:00 75.2 °F /  24 °C 65.2 °F /  18.4 °C 30.03in /  1016.8hPa Calm     71% 0.00in /  0mm 113 W/m2
16:09 75.1 °F /  23.9 °C 64.6 °F /  18.1 °C 30.04in /  1017.2hPa Calm     69.8% 0.00in /  0mm 109 W/m2
16:14 75 °F /  23.9 °C 64.5 °F /  18.1 °C 30.04in /  1017.2hPa Calm     70% 0.00in /  0mm 107 W/m2
16:19 74.9 °F /  23.8 °C 64.9 °F /  18.3 °C 30.04in /  1017.2hPa Calm     71.3% 0.00in /  0mm 107 W/m2
16:24 74.8 °F /  23.8 °C 65.1 °F /  18.4 °C 30.04in /  1017.2hPa Calm     71.7% 0.00in /  0mm 100 W/m2
16:29 74.8 °F /  23.8 °C 65.1 °F /  18.4 °C 30.03in /  1016.8hPa Calm     71.8% 0.00in /  0mm 97 W/m2
16:34 74.7 °F /  23.7 °C 65.1 °F /  18.4 °C 30.03in /  1016.8hPa Calm     72% 0.00in /  0mm 102 W/m2
16:39 74.7 °F /  23.7 °C 65.1 °F /  18.4 °C 30.03in /  1016.8hPa Calm     72% 0.00in /  0mm 111 W/m2
16:44 74.7 °F /  23.7 °C 65 °F /  18.3 °C 30.03in /  1016.8hPa Calm     72% 0.00in /  0mm 130 W/m2
16:49 74.7 °F /  23.7 °C 65.2 °F /  18.4 °C 30.03in /  1016.8hPa Calm     72.3% 0.00in /  0mm 132 W/m2
16:54 74.7 °F /  23.7 °C 65.1 °F /  18.4 °C 30.03in /  1016.8hPa Calm     72% 0.00in /  0mm 125 W/m2
16:59 74.8 °F /  23.8 °C 65 °F /  18.3 °C 30.03in /  1016.8hPa Calm     71.6% 0.00in /  0mm 109 W/m2
17:04 74.8 °F /  23.8 °C 64.5 °F /  18.1 °C 30.03in /  1016.8hPa Calm     70.4% 0.00in /  0mm 114 W/m2
17:09 74.8 °F /  23.8 °C 64.5 °F /  18.1 °C 30.02in /  1016.5hPa Calm     70.3% 0.00in /  0mm 109 W/m2
17:14 74.9 °F /  23.8 °C 64.8 °F /  18.2 °C 30.02in /  1016.5hPa Calm     70.8% 0.00in /  0mm 88 W/m2
17:19 74.9 °F /  23.8 °C 64.9 °F /  18.3 °C 30.02in /  1016.5hPa Calm     71% 0.00in /  0mm 62 W/m2
17:24 74.8 °F /  23.8 °C 64.8 °F /  18.2 °C 30.02in /  1016.5hPa Calm     71% 0.00in /  0mm 60 W/m2
17:29 74.8 °F /  23.8 °C 65.2 °F /  18.4 °C 30.02in /  1016.5hPa Calm     72.1% 0.00in /  0mm 60 W/m2
17:34 74.7 °F /  23.7 °C 65.4 °F /  18.6 °C 30.02in /  1016.5hPa Calm     72.7% 0.00in /  0mm 53 W/m2
17:39 74.6 °F /  23.7 °C 65 °F /  18.3 °C 30.02in /  1016.5hPa Calm     72% 0.00in /  0mm 40 W/m2
17:44 74.4 °F /  23.6 °C 64.7 °F /  18.2 °C 30.02in /  1016.5hPa Calm     71.8% 0.00in /  0mm 39 W/m2
17:49 74.2 °F /  23.4 °C 64.6 °F /  18.1 °C 30.01in /  1016.1hPa Calm     72% 0.00in /  0mm 40 W/m2
17:54 74.1 °F /  23.4 °C 64.5 °F /  18.1 °C 30.01in /  1016.1hPa Calm     72% 0.00in /  0mm 33 W/m2
17:59 73.9 °F /  23.3 °C 64.4 °F /  18 °C 30.01in /  1016.1hPa Calm     72.3% 0.00in /  0mm 26 W/m2
18:04 73.8 °F /  23.2 °C 64.6 °F /  18.1 °C 30.01in /  1016.1hPa Calm     73.1% 0.00in /  0mm 23 W/m2
18:09 73.7 °F /  23.2 °C 64.9 °F /  18.3 °C 30.02in /  1016.5hPa Calm     74% 0.00in /  0mm 25 W/m2
18:14 73.5 °F /  23.1 °C 64.9 °F /  18.3 °C 30.02in /  1016.5hPa Calm     74.3% 0.00in /  0mm 25 W/m2
18:19 73.4 °F /  23 °C 65 °F /  18.3 °C 30.02in /  1016.5hPa Calm     75% 0.00in /  0mm 21 W/m2
18:24 73.2 °F /  22.9 °C 64.8 °F /  18.2 °C 30.02in /  1016.5hPa WNW 0.1mph /  0.2km/h 2mph /  3.2km/h 75% 0.00in /  0mm 12 W/m2
18:29 73 °F /  22.8 °C 64.7 °F /  18.2 °C 30.02in /  1016.5hPa Calm   2mph /  3.2km/h 75% 0.00in /  0mm 11 W/m2
18:34 72.9 °F /  22.7 °C 64.5 °F /  18.1 °C 30.01in /  1016.1hPa WNW 0.1mph /  0.2km/h 3mph /  4.8km/h 75% 0.00in /  0mm 9 W/m2
18:39 72.7 °F /  22.6 °C 64.3 °F /  17.9 °C 30.01in /  1016.1hPa Calm   3mph /  4.8km/h 75% 0.00in /  0mm 9 W/m2
18:44 72.6 °F /  22.6 °C 64.2 °F /  17.9 °C 30.01in /  1016.1hPa Calm   3mph /  4.8km/h 75% 0.00in /  0mm 7 W/m2
18:49 72.4 °F /  22.4 °C 64 °F /  17.8 °C 30.01in /  1016.1hPa Calm   3mph /  4.8km/h 75% 0.00in /  0mm 5 W/m2
18:54 72.2 °F /  22.3 °C 64.1 °F /  17.8 °C 30.00in /  1015.8hPa Calm   3mph /  4.8km/h 75.5% 0.00in /  0mm 5 W/m2
18:59 72.2 °F /  22.3 °C 64.2 °F /  17.9 °C 30.00in /  1015.8hPa Calm   3mph /  4.8km/h 76% 0.00in /  0mm 0 W/m2
19:04 72 °F /  22.2 °C 64.3 °F /  17.9 °C 30.01in /  1016.1hPa Calm   3mph /  4.8km/h 76.8% 0.00in /  0mm 0 W/m2
19:09 71.9 °F /  22.2 °C 64.3 °F /  17.9 °C 30.01in /  1016.1hPa Calm     77% 0.00in /  0mm 0 W/m2
19:14 71.8 °F /  22.1 °C 64.2 °F /  17.9 °C 30.01in /  1016.1hPa Calm     77% 0.00in /  0mm 0 W/m2
19:19 71.7 °F /  22.1 °C 64.1 °F /  17.8 °C 30.01in /  1016.1hPa Calm     77% 0.00in /  0mm 0 W/m2
19:24 71.5 °F /  21.9 °C 63.9 °F /  17.7 °C 30.01in /  1016.1hPa Calm   1mph /  1.6km/h 77% 0.00in /  0mm 0 W/m2
19:29 71.4 °F /  21.9 °C 63.8 °F /  17.7 °C 30.01in /  1016.1hPa Calm   1mph /  1.6km/h 77% 0.00in /  0mm 0 W/m2
19:34 71.3 °F /  21.8 °C 63.9 °F /  17.7 °C 30.01in /  1016.1hPa Calm   1mph /  1.6km/h 77.6% 0.00in /  0mm 0 W/m2
19:39 71.2 °F /  21.8 °C 64 °F /  17.8 °C 30.01in /  1016.1hPa WNW 0.5mph /  0.8km/h 4mph /  6.4km/h 78.1% 0.00in /  0mm 0 W/m2
19:44 71 °F /  21.7 °C 64.2 °F /  17.9 °C 30.01in /  1016.1hPa WNW 0.1mph /  0.2km/h 4mph /  6.4km/h 79% 0.00in /  0mm 0 W/m2
19:49 70.9 °F /  21.6 °C 64.3 °F /  17.9 °C 30.01in /  1016.1hPa West 0.2mph /  0.3km/h 4mph /  6.4km/h 79.7% 0.00in /  0mm 0 W/m2
19:54 70.7 °F /  21.5 °C 64.1 °F /  17.8 °C 30.01in /  1016.1hPa Calm   4mph /  6.4km/h 79.5% 0.00in /  0mm 0 W/m2
19:59 70.5 °F /  21.4 °C 64.1 °F /  17.8 °C 30.01in /  1016.1hPa Calm   4mph /  6.4km/h 80.2% 0.00in /  0mm 0 W/m2
20:09 69.8 °F /  21 °C 64 °F /  17.8 °C 30.01in /  1016.1hPa Calm     81.8% 0.01in /  0.25mm 0 W/m2
20:14 69.6 °F /  20.9 °C 64.2 °F /  17.9 °C 30.01in /  1016.1hPa Calm     82.9% 0.02in /  0.51mm 0 W/m2
20:19 69.3 °F /  20.7 °C 64.1 °F /  17.8 °C 30.01in /  1016.1hPa Calm     83.4% 0.02in /  0.51mm 0 W/m2
20:24 69 °F /  20.6 °C 63.9 °F /  17.7 °C 30.01in /  1016.1hPa Calm     84% 0.02in /  0.51mm 0 W/m2
20:29 68.6 °F /  20.3 °C 63.7 °F /  17.6 °C 30.01in /  1016.1hPa Calm     84.3% 0.03in /  0.76mm 0 W/m2
20:34 68.2 °F /  20.1 °C 63.5 °F /  17.5 °C 30.01in /  1016.1hPa Calm     85% 0.03in /  0.76mm 0 W/m2
20:39 67.9 °F /  19.9 °C 63.5 °F /  17.5 °C 30.01in /  1016.1hPa Calm     86% 0.03in /  0.76mm 0 W/m2
20:44 67.6 °F /  19.8 °C 63.6 °F /  17.6 °C 30.01in /  1016.1hPa Calm     86.8% 0.03in /  0.76mm 0 W/m2
20:49 67.4 °F /  19.7 °C 63.4 °F /  17.4 °C 30.01in /  1016.1hPa Calm     87% 0.03in /  0.76mm 0 W/m2
20:54 67.1 °F /  19.5 °C 63.3 °F /  17.4 °C 30.01in /  1016.1hPa Calm     87.5% 0.03in /  0.76mm 0 W/m2
20:59 67 °F /  19.4 °C 63.3 °F /  17.4 °C 30.01in /  1016.1hPa Calm     88% 0.04in /  1.02mm 0 W/m2
21:04 66.9 °F /  19.4 °C 63.6 °F /  17.6 °C 30.01in /  1016.1hPa Calm     89% 0.04in /  1.02mm 0 W/m2
21:09 66.8 °F /  19.3 °C 63.5 °F /  17.5 °C 30.01in /  1016.1hPa Calm     89% 0.01in /  0.25mm 0 W/m2
21:14 66.8 °F /  19.3 °C 63.7 °F /  17.6 °C 30.01in /  1016.1hPa Calm     89.8% 0.01in /  0.25mm 0 W/m2
21:19 66.8 °F /  19.3 °C 63.7 °F /  17.6 °C 30.01in /  1016.1hPa Calm     90% 0.01in /  0.25mm 0 W/m2
21:24 66.7 °F /  19.3 °C 63.7 °F /  17.6 °C 30.00in /  1015.8hPa Calm     90% 0.01in /  0.25mm 0 W/m2
21:29 66.6 °F /  19.2 °C 63.6 °F /  17.6 °C 30.00in /  1015.8hPa Calm     90% 0.01in /  0.25mm 0 W/m2
21:34 66.6 °F /  19.2 °C 63.7 °F /  17.6 °C 30.00in /  1015.8hPa Calm     90.5% 0.01in /  0.25mm 0 W/m2
21:39 66.5 °F /  19.2 °C 63.8 °F /  17.7 °C 30.00in /  1015.8hPa Calm     91% 0.01in /  0.25mm 0 W/m2
21:44 66.5 °F /  19.2 °C 63.8 °F /  17.7 °C 30.00in /  1015.8hPa Calm     91% 0.01in /  0.25mm 0 W/m2
21:49 66.5 °F /  19.2 °C 63.8 °F /  17.7 °C 29.99in /  1015.5hPa Calm     91% 0.01in /  0.25mm 0 W/m2
21:54 66.4 °F /  19.1 °C 63.7 °F /  17.6 °C 29.99in /  1015.5hPa Calm     91% 0.01in /  0.25mm 0 W/m2
21:59 66.3 °F /  19.1 °C 63.7 °F /  17.6 °C 29.99in /  1015.5hPa Calm     91.2% 0.01in /  0.25mm 0 W/m2
22:04 66.3 °F /  19.1 °C 63.6 °F /  17.6 °C 29.99in /  1015.5hPa Calm     91.1% 0.01in /  0.25mm 0 W/m2
22:09 66.2 °F /  19 °C 63.8 °F /  17.7 °C 29.99in /  1015.5hPa Calm     91.8% 0.00in /  0mm 0 W/m2
22:14 66.2 °F /  19 °C 63.8 °F /  17.7 °C 29.99in /  1015.5hPa Calm     92% 0.00in /  0mm 0 W/m2
22:19 66.1 °F /  18.9 °C 63.7 °F /  17.6 °C 29.98in /  1015.1hPa Calm     92% 0.00in /  0mm 0 W/m2
22:24 66.1 °F /  18.9 °C 63.7 °F /  17.6 °C 29.98in /  1015.1hPa Calm     92% 0.00in /  0mm 0 W/m2
22:29 66.1 °F /  18.9 °C 63.7 °F /  17.6 °C 29.98in /  1015.1hPa Calm     92% 0.00in /  0mm 0 W/m2
22:34 66.1 °F /  18.9 °C 63.7 °F /  17.6 °C 29.98in /  1015.1hPa Calm     92% 0.00in /  0mm 0 W/m2
22:39 66.1 °F /  18.9 °C 64 °F /  17.8 °C 29.98in /  1015.1hPa Calm     92.9% 0.00in /  0mm 0 W/m2
22:44 66.1 °F /  18.9 °C 64 °F /  17.8 °C 29.98in /  1015.1hPa Calm     93% 0.00in /  0mm 0 W/m2
22:49 66.1 °F /  18.9 °C 64 °F /  17.8 °C 29.97in /  1014.8hPa Calm     93% 0.00in /  0mm 0 W/m2
22:54 66.1 °F /  18.9 °C 64 °F /  17.8 °C 29.97in /  1014.8hPa Calm     93% 0.00in /  0mm 0 W/m2
22:59 66 °F /  18.9 °C 63.9 °F /  17.7 °C 29.97in /  1014.8hPa Calm     93% 0.00in /  0mm 0 W/m2
23:04 66 °F /  18.9 °C 63.9 °F /  17.7 °C 29.97in /  1014.8hPa Calm     93% 0.00in /  0mm 0 W/m2
23:09 66 °F /  18.9 °C 64 °F /  17.8 °C 29.97in /  1014.8hPa Calm     93% 0.00in /  0mm 0 W/m2
23:14 66.1 °F /  18.9 °C 64 °F /  17.8 °C 29.97in /  1014.8hPa Calm     93% 0.00in /  0mm 0 W/m2
23:19 66 °F /  18.9 °C 63.9 °F /  17.7 °C 29.97in /  1014.8hPa Calm     93% 0.01in /  0.25mm 0 W/m2
23:24 65.9 °F /  18.8 °C 63.8 °F /  17.7 °C 29.97in /  1014.8hPa Calm     93% 0.01in /  0.25mm 0 W/m2
23:29 65.8 °F /  18.8 °C 63.7 °F /  17.6 °C 29.96in /  1014.4hPa Calm     93% 0.01in /  0.25mm 0 W/m2
23:34 65.8 °F /  18.8 °C 63.7 °F /  17.6 °C 29.96in /  1014.4hPa Calm     93% 0.01in /  0.25mm 0 W/m2
23:39 65.8 °F /  18.8 °C 63.7 °F /  17.6 °C 29.96in /  1014.4hPa Calm     93% 0.01in /  0.25mm 0 W/m2
23:44 65.7 °F /  18.7 °C 63.6 °F /  17.6 °C 29.95in /  1014.1hPa Calm     93% 0.01in /  0.25mm 0 W/m2
23:49 65.7 °F /  18.7 °C 63.6 °F /  17.6 °C 29.95in /  1014.1hPa Calm     93% 0.01in /  0.25mm 0 W/m2
23:54 65.7 °F /  18.7 °C 63.6 °F /  17.6 °C 29.95in /  1014.1hPa Calm     93% 0.01in /  0.25mm 0 W/m2
23:59 65.7 °F /  18.7 °C 63.7 °F /  17.6 °C 29.95in /  1014.1hPa Calm     93.2% 0.01in /  0.25mm 0 W/m2
Hartford County Weather
Compliments of Weather Underground - 4 mb